sensor_id;sensor_type;location;lat;lon;timestamp;pressure;altitude;pressure_sealevel;temperature;humidity
51617;BME280;37697;52.588;13.394;2024-03-25T00:02:06;99284.86;;;4.68;100.00
51617;BME280;37697;52.588;13.394;2024-03-25T00:07:32;99291.35;;;4.69;100.00
51617;BME280;37697;52.588;13.394;2024-03-25T00:12:57;99295.27;;;4.69;100.00
51617;BME280;37697;52.588;13.394;2024-03-25T00:18:22;99297.02;;;4.68;100.00
51617;BME280;37697;52.588;13.394;2024-03-25T00:23:40;99290.72;;;4.67;100.00
51617;BME280;37697;52.588;13.394;2024-03-25T00:29:05;99304.64;;;4.64;100.00
51617;BME280;37697;52.588;13.394;2024-03-25T00:34:23;99309.27;;;4.64;100.00
51617;BME280;37697;52.588;13.394;2024-03-25T00:39:48;99316.78;;;4.62;100.00
51617;BME280;37697;52.588;13.394;2024-03-25T00:45:13;99319.41;;;4.64;100.00
51617;BME280;37697;52.588;13.394;2024-03-25T00:50:39;99324.91;;;4.64;100.00
51617;BME280;37697;52.588;13.394;2024-03-25T00:55:55;99325.69;;;4.67;100.00
51617;BME280;37697;52.588;13.394;2024-03-25T01:01:20;99325.73;;;4.71;100.00
51617;BME280;37697;52.588;13.394;2024-03-25T01:06:45;99329.73;;;4.73;100.00
51617;BME280;37697;52.588;13.394;2024-03-25T01:12:10;99329.38;;;4.74;100.00
51617;BME280;37697;52.588;13.394;2024-03-25T01:17:36;99333.45;;;4.73;100.00
51617;BME280;37697;52.588;13.394;2024-03-25T01:23:01;99332.40;;;4.74;100.00
51617;BME280;37697;52.588;13.394;2024-03-25T01:28:26;99336.02;;;4.75;100.00
51617;BME280;37697;52.588;13.394;2024-03-25T01:33:51;99342.77;;;4.75;100.00
51617;BME280;37697;52.588;13.394;2024-03-25T01:39:17;99347.39;;;4.77;100.00
51617;BME280;37697;52.588;13.394;2024-03-25T01:44:42;99349.83;;;4.76;100.00
51617;BME280;37697;52.588;13.394;2024-03-25T01:50:08;99355.92;;;4.76;100.00
51617;BME280;37697;52.588;13.394;2024-03-25T01:55:35;99358.35;;;4.78;100.00
51617;BME280;37697;52.588;13.394;2024-03-25T02:01:01;99361.73;;;4.81;100.00
51617;BME280;37697;52.588;13.394;2024-03-25T02:06:27;99365.20;;;4.82;100.00
51617;BME280;37697;52.588;13.394;2024-03-25T02:11:53;99368.63;;;4.83;100.00
51617;BME280;37697;52.588;13.394;2024-03-25T02:17:19;99372.32;;;4.81;100.00
51617;BME280;37697;52.588;13.394;2024-03-25T02:22:44;99380.45;;;4.74;100.00
51617;BME280;37697;52.588;13.394;2024-03-25T02:28:09;99388.90;;;4.64;100.00
51617;BME280;37697;52.588;13.394;2024-03-25T02:33:35;99394.45;;;4.53;100.00
51617;BME280;37697;52.588;13.394;2024-03-25T02:39:00;99406.92;;;4.47;100.00
51617;BME280;37697;52.588;13.394;2024-03-25T02:44:26;99412.48;;;4.40;100.00
51617;BME280;37697;52.588;13.394;2024-03-25T02:49:51;99411.41;;;4.35;100.00
51617;BME280;37697;52.588;13.394;2024-03-25T02:55:17;99422.04;;;4.31;100.00
51617;BME280;37697;52.588;13.394;2024-03-25T03:00:42;99428.34;;;4.32;100.00
51617;BME280;37697;52.588;13.394;2024-03-25T03:06:07;99436.61;;;4.33;100.00
51617;BME280;37697;52.588;13.394;2024-03-25T03:11:23;99438.83;;;4.35;100.00
51617;BME280;37697;52.588;13.394;2024-03-25T03:16:48;99447.66;;;4.35;100.00
51617;BME280;37697;52.588;13.394;2024-03-25T03:22:14;99454.95;;;4.35;100.00
51617;BME280;37697;52.588;13.394;2024-03-25T03:27:39;99458.23;;;4.35;100.00
51617;BME280;37697;52.588;13.394;2024-03-25T03:33:05;99463.59;;;4.38;100.00
51617;BME280;37697;52.588;13.394;2024-03-25T03:38:30;99468.75;;;4.40;100.00
51617;BME280;37697;52.588;13.394;2024-03-25T03:43:56;99476.63;;;4.38;100.00
51617;BME280;37697;52.588;13.394;2024-03-25T03:49:20;99486.48;;;4.39;100.00
51617;BME280;37697;52.588;13.394;2024-03-25T03:54:45;99493.04;;;4.41;100.00
51617;BME280;37697;52.588;13.394;2024-03-25T04:00:12;99497.70;;;4.40;100.00
51617;BME280;37697;52.588;13.394;2024-03-25T04:05:37;99505.05;;;4.41;100.00
51617;BME280;37697;52.588;13.394;2024-03-25T04:11:03;99512.09;;;4.40;100.00
51617;BME280;37697;52.588;13.394;2024-03-25T04:16:29;99519.80;;;4.39;100.00
51617;BME280;37697;52.588;13.394;2024-03-25T04:21:55;99524.70;;;4.39;100.00
51617;BME280;37697;52.588;13.394;2024-03-25T04:27:20;99529.84;;;4.39;100.00
51617;BME280;37697;52.588;13.394;2024-03-25T04:32:45;99536.09;;;4.40;100.00
51617;BME280;37697;52.588;13.394;2024-03-25T04:38:11;99546.48;;;4.38;100.00
51617;BME280;37697;52.588;13.394;2024-03-25T04:43:28;99556.34;;;4.36;100.00
51617;BME280;37697;52.588;13.394;2024-03-25T04:48:54;99560.61;;;4.35;100.00
51617;BME280;37697;52.588;13.394;2024-03-25T04:54:19;99570.11;;;4.34;100.00
51617;BME280;37697;52.588;13.394;2024-03-25T04:59:44;99577.46;;;4.35;100.00
51617;BME280;37697;52.588;13.394;2024-03-25T05:05:10;99581.77;;;4.36;100.00
51617;BME280;37697;52.588;13.394;2024-03-25T05:10:35;99586.86;;;4.37;100.00
51617;BME280;37697;52.588;13.394;2024-03-25T05:15:53;99596.24;;;4.38;100.00
51617;BME280;37697;52.588;13.394;2024-03-25T05:21:18;99598.30;;;4.40;100.00
51617;BME280;37697;52.588;13.394;2024-03-25T05:26:44;99609.13;;;4.41;100.00
51617;BME280;37697;52.588;13.394;2024-03-25T05:32:09;99617.44;;;4.44;100.00
51617;BME280;37697;52.588;13.394;2024-03-25T05:37:34;99618.58;;;4.45;100.00
51617;BME280;37697;52.588;13.394;2024-03-25T05:42:59;99631.20;;;4.46;100.00
51617;BME280;37697;52.588;13.394;2024-03-25T05:48:25;99639.69;;;4.49;100.00
51617;BME280;37697;52.588;13.394;2024-03-25T05:53:50;99650.02;;;4.53;100.00
51617;BME280;37697;52.588;13.394;2024-03-25T05:59:16;99653.52;;;4.51;100.00
51617;BME280;37697;52.588;13.394;2024-03-25T06:04:34;99656.86;;;4.49;100.00
51617;BME280;37697;52.588;13.394;2024-03-25T06:09:59;99660.89;;;4.50;100.00
51617;BME280;37697;52.588;13.394;2024-03-25T06:15:24;99670.13;;;4.49;100.00
51617;BME280;37697;52.588;13.394;2024-03-25T06:20:50;99676.92;;;4.50;100.00
51617;BME280;37697;52.588;13.394;2024-03-25T06:26:15;99683.55;;;4.53;100.00
51617;BME280;37697;52.588;13.394;2024-03-25T06:31:40;99695.69;;;4.55;100.00
51617;BME280;37697;52.588;13.394;2024-03-25T06:37:05;99699.52;;;4.53;100.00
51617;BME280;37697;52.588;13.394;2024-03-25T06:42:30;99710.19;;;4.56;100.00
51617;BME280;37697;52.588;13.394;2024-03-25T06:47:54;99716.32;;;4.59;100.00
51617;BME280;37697;52.588;13.394;2024-03-25T06:53:19;99727.75;;;4.62;100.00
51617;BME280;37697;52.588;13.394;2024-03-25T06:58:44;99736.40;;;4.64;100.00
51617;BME280;37697;52.588;13.394;2024-03-25T07:04:12;99742.77;;;4.65;100.00
51617;BME280;37697;52.588;13.394;2024-03-25T07:09:37;99753.77;;;4.68;100.00
51617;BME280;37697;52.588;13.394;2024-03-25T07:15:03;99765.55;;;4.72;100.00
51617;BME280;37697;52.588;13.394;2024-03-25T07:20:28;99777.65;;;4.74;100.00
51617;BME280;37697;52.588;13.394;2024-03-25T07:25:54;99788.06;;;4.80;100.00
51617;BME280;37697;52.588;13.394;2024-03-25T07:31:20;99796.76;;;4.84;100.00
51617;BME280;37697;52.588;13.394;2024-03-25T07:36:38;99801.46;;;4.88;100.00
51617;BME280;37697;52.588;13.394;2024-03-25T07:42:04;99806.32;;;4.93;100.00
51617;BME280;37697;52.588;13.394;2024-03-25T07:47:30;99812.64;;;5.00;100.00
51617;BME280;37697;52.588;13.394;2024-03-25T07:52:56;99821.34;;;5.03;100.00
51617;BME280;37697;52.588;13.394;2024-03-25T07:58:21;99821.92;;;4.99;100.00
51617;BME280;37697;52.588;13.394;2024-03-25T08:03:40;99827.36;;;4.96;100.00
51617;BME280;37697;52.588;13.394;2024-03-25T08:09:06;99834.70;;;4.99;100.00
51617;BME280;37697;52.588;13.394;2024-03-25T08:14:32;99839.35;;;5.03;100.00
51617;BME280;37697;52.588;13.394;2024-03-25T08:19:58;99849.71;;;5.09;100.00
51617;BME280;37697;52.588;13.394;2024-03-25T08:25:25;99855.20;;;5.17;100.00
51617;BME280;37697;52.588;13.394;2024-03-25T08:30:50;99862.61;;;5.39;100.00
51617;BME280;37697;52.588;13.394;2024-03-25T08:36:16;99868.83;;;5.65;100.00
51617;BME280;37697;52.588;13.394;2024-03-25T08:41:41;99879.80;;;5.69;100.00
51617;BME280;37697;52.588;13.394;2024-03-25T08:47:06;99888.61;;;5.68;100.00
51617;BME280;37697;52.588;13.394;2024-03-25T08:52:32;99889.69;;;5.65;100.00
51617;BME280;37697;52.588;13.394;2024-03-25T08:57:57;99897.34;;;5.70;100.00
51617;BME280;37697;52.588;13.394;2024-03-25T09:03:25;99899.70;;;5.74;100.00
51617;BME280;37697;52.588;13.394;2024-03-25T09:08:58;99905.27;;;5.79;100.00
51617;BME280;37697;52.588;13.394;2024-03-25T09:14:22;99911.55;;;5.94;100.00
51617;BME280;37697;52.588;13.394;2024-03-25T09:19:47;99921.95;;;6.11;100.00
51617;BME280;37697;52.588;13.394;2024-03-25T09:25:13;99927.82;;;6.23;100.00
51617;BME280;37697;52.588;13.394;2024-03-25T09:30:24;99933.27;;;6.19;100.00
51617;BME280;37697;52.588;13.394;2024-03-25T09:35:49;99937.37;;;6.21;100.00
51617;BME280;37697;52.588;13.394;2024-03-25T09:41:15;99944.47;;;6.24;100.00
51617;BME280;37697;52.588;13.394;2024-03-25T09:46:40;99952.98;;;6.17;100.00
51617;BME280;37697;52.588;13.394;2024-03-25T09:52:06;99962.70;;;6.10;100.00
51617;BME280;37697;52.588;13.394;2024-03-25T09:57:32;99967.97;;;6.09;100.00
51617;BME280;37697;52.588;13.394;2024-03-25T10:02:58;99968.84;;;6.22;100.00
51617;BME280;37697;52.588;13.394;2024-03-25T10:08:24;99971.83;;;6.37;100.00
51617;BME280;37697;52.588;13.394;2024-03-25T10:13:54;99978.40;;;6.41;100.00
51617;BME280;37697;52.588;13.394;2024-03-25T10:19:20;99976.66;;;6.56;100.00
51617;BME280;37697;52.588;13.394;2024-03-25T10:24:40;99979.59;;;6.73;100.00
51617;BME280;37697;52.588;13.394;2024-03-25T10:30:08;99982.95;;;6.90;100.00
51617;BME280;37697;52.588;13.394;2024-03-25T10:35:35;99988.39;;;7.02;100.00
51617;BME280;37697;52.588;13.394;2024-03-25T10:41:03;99991.25;;;7.10;100.00
51617;BME280;37697;52.588;13.394;2024-03-25T10:46:12;99995.70;;;7.26;100.00
51617;BME280;37697;52.588;13.394;2024-03-25T10:51:40;99991.46;;;7.65;100.00
51617;BME280;37697;52.588;13.394;2024-03-25T10:57:07;99986.79;;;7.98;100.00
51617;BME280;37697;52.588;13.394;2024-03-25T11:02:33;99983.20;;;7.97;100.00
51617;BME280;37697;52.588;13.394;2024-03-25T11:07:58;99990.96;;;7.80;100.00
51617;BME280;37697;52.588;13.394;2024-03-25T11:13:34;99993.69;;;7.69;100.00
51617;BME280;37697;52.588;13.394;2024-03-25T11:19:03;99992.38;;;7.59;100.00
51617;BME280;37697;52.588;13.394;2024-03-25T11:24:30;99993.37;;;7.65;100.00
51617;BME280;37697;52.588;13.394;2024-03-25T11:29:48;99988.20;;;7.91;100.00
51617;BME280;37697;52.588;13.394;2024-03-25T11:35:13;99987.73;;;8.20;100.00
51617;BME280;37697;52.588;13.394;2024-03-25T11:40:40;99985.77;;;8.52;100.00
51617;BME280;37697;52.588;13.394;2024-03-25T11:45:59;99988.39;;;8.65;99.93
51617;BME280;37697;52.588;13.394;2024-03-25T11:51:25;99992.30;;;8.55;99.17
51617;BME280;37697;52.588;13.394;2024-03-25T11:56:51;99992.99;;;8.40;98.10
51617;BME280;37697;52.588;13.394;2024-03-25T12:02:17;99994.14;;;8.39;98.86
51617;BME280;37697;52.588;13.394;2024-03-25T12:07:44;99996.48;;;8.24;95.84
51617;BME280;37697;52.588;13.394;2024-03-25T12:13:10;99994.23;;;7.96;95.38
51617;BME280;37697;52.588;13.394;2024-03-25T12:18:36;99996.80;;;7.79;94.57
51617;BME280;37697;52.588;13.394;2024-03-25T12:24:02;99996.18;;;7.70;94.37
51617;BME280;37697;52.588;13.394;2024-03-25T12:29:27;99989.67;;;7.96;95.86
51617;BME280;37697;52.588;13.394;2024-03-25T12:34:53;99985.50;;;8.66;96.03
51617;BME280;37697;52.588;13.394;2024-03-25T12:40:24;99979.58;;;9.29;94.42
51617;BME280;37697;52.588;13.394;2024-03-25T12:45:50;99982.63;;;9.44;94.21
51617;BME280;37697;52.588;13.394;2024-03-25T12:51:16;99990.54;;;9.19;91.16
51617;BME280;37697;52.588;13.394;2024-03-25T12:56:41;99996.12;;;8.93;90.53
51617;BME280;37697;52.588;13.394;2024-03-25T13:02:10;99998.39;;;8.82;89.88
51617;BME280;37697;52.588;13.394;2024-03-25T13:07:29;99997.00;;;8.78;89.89
51617;BME280;37697;52.588;13.394;2024-03-25T13:12:54;99998.16;;;8.90;89.32
51617;BME280;37697;52.588;13.394;2024-03-25T13:18:13;100000.23;;;8.90;88.91
51617;BME280;37697;52.588;13.394;2024-03-25T13:23:38;100000.36;;;8.72;88.74
51617;BME280;37697;52.588;13.394;2024-03-25T13:29:04;100005.52;;;8.60;87.47
51617;BME280;37697;52.588;13.394;2024-03-25T13:34:29;100008.70;;;8.63;87.18
51617;BME280;37697;52.588;13.394;2024-03-25T13:39:54;100012.25;;;8.79;87.51
51617;BME280;37697;52.588;13.394;2024-03-25T13:45:20;100015.66;;;8.88;86.83
51617;BME280;37697;52.588;13.394;2024-03-25T13:50:45;100013.61;;;9.09;86.49
51617;BME280;37697;52.588;13.394;2024-03-25T13:56:11;100010.92;;;9.22;85.81
51617;BME280;37697;52.588;13.394;2024-03-25T14:01:36;100010.59;;;9.38;85.38
51617;BME280;37697;52.588;13.394;2024-03-25T14:07:01;100010.58;;;9.41;84.91
51617;BME280;37697;52.588;13.394;2024-03-25T14:12:10;100004.85;;;9.50;85.31
51617;BME280;37697;52.588;13.394;2024-03-25T14:17:28;100009.27;;;9.44;83.77
51617;BME280;37697;52.588;13.394;2024-03-25T14:22:54;100012.44;;;9.30;83.18
51617;BME280;37697;52.588;13.394;2024-03-25T14:28:18;100014.32;;;9.22;83.31
51617;BME280;37697;52.588;13.394;2024-03-25T14:33:43;100013.21;;;9.25;83.34
51617;BME280;37697;52.588;13.394;2024-03-25T14:39:08;100017.21;;;9.32;83.43
51617;BME280;37697;52.588;13.394;2024-03-25T14:44:34;100013.89;;;9.47;82.90
51617;BME280;37697;52.588;13.394;2024-03-25T14:49:58;100001.77;;;9.79;82.08
51617;BME280;37697;52.588;13.394;2024-03-25T14:55:24;100002.08;;;9.95;80.70
51617;BME280;37697;52.588;13.394;2024-03-25T15:00:49;100007.92;;;10.08;80.47
51617;BME280;37697;52.588;13.394;2024-03-25T15:06:15;100007.64;;;10.15;80.07
51617;BME280;37697;52.588;13.394;2024-03-25T15:11:40;100006.33;;;9.84;78.82
51617;BME280;37697;52.588;13.394;2024-03-25T15:17:05;100009.52;;;9.30;79.86
51617;BME280;37697;52.588;13.394;2024-03-25T15:22:31;100016.30;;;9.02;80.57
51617;BME280;37697;52.588;13.394;2024-03-25T15:27:56;100024.95;;;8.70;80.64
51617;BME280;37697;52.588;13.394;2024-03-25T15:33:22;100032.23;;;8.43;81.33
51617;BME280;37697;52.588;13.394;2024-03-25T15:38:47;100033.02;;;8.09;81.29
51617;BME280;37697;52.588;13.394;2024-03-25T15:44:15;100041.65;;;7.76;83.70
51617;BME280;37697;52.588;13.394;2024-03-25T15:49:40;100033.88;;;7.56;85.31
51617;BME280;37697;52.588;13.394;2024-03-25T15:55:10;100035.40;;;7.57;86.93
51617;BME280;37697;52.588;13.394;2024-03-25T16:00:35;100030.15;;;7.63;87.92
51617;BME280;37697;52.588;13.394;2024-03-25T16:06:01;100033.48;;;7.60;88.38
51617;BME280;37697;52.588;13.394;2024-03-25T16:11:26;100036.17;;;7.56;88.68
51617;BME280;37697;52.588;13.394;2024-03-25T16:16:51;100035.89;;;7.50;88.70
51617;BME280;37697;52.588;13.394;2024-03-25T16:22:17;100036.41;;;7.42;88.97
51617;BME280;37697;52.588;13.394;2024-03-25T16:27:42;100036.80;;;7.38;89.48
51617;BME280;37697;52.588;13.394;2024-03-25T16:33:08;100031.44;;;7.31;89.59
51617;BME280;37697;52.588;13.394;2024-03-25T16:38:33;100035.90;;;7.26;90.05
51617;BME280;37697;52.588;13.394;2024-03-25T16:43:58;100040.24;;;7.21;90.40
51617;BME280;37697;52.588;13.394;2024-03-25T16:49:25;100039.16;;;7.20;90.97
51617;BME280;37697;52.588;13.394;2024-03-25T16:54:51;100038.59;;;7.19;90.99
51617;BME280;37697;52.588;13.394;2024-03-25T17:06:57;100042.73;;;6.94;91.20
51617;BME280;37697;52.588;13.394;2024-03-25T17:12:22;100046.71;;;6.84;91.38
51617;BME280;37697;52.588;13.394;2024-03-25T17:17:49;100046.30;;;6.70;91.44
51617;BME280;37697;52.588;13.394;2024-03-25T18:06:34;100068.21;;;5.57;93.30
51617;BME280;37697;52.588;13.394;2024-03-25T18:12:00;100071.16;;;5.42;93.59
51617;BME280;37697;52.588;13.394;2024-03-25T18:17:25;100072.29;;;5.30;94.05
51617;BME280;37697;52.588;13.394;2024-03-25T18:22:50;100070.84;;;5.19;94.03
51617;BME280;37697;52.588;13.394;2024-03-25T18:28:08;100073.84;;;5.03;94.15
51617;BME280;37697;52.588;13.394;2024-03-25T18:33:34;100073.20;;;4.92;94.54
51617;BME280;37697;52.588;13.394;2024-03-25T18:38:59;100076.13;;;4.84;94.97
51617;BME280;37697;52.588;13.394;2024-03-25T18:44:24;100068.15;;;4.77;95.00
51617;BME280;37697;52.588;13.394;2024-03-25T18:49:49;100065.02;;;4.71;95.43
51617;BME280;37697;52.588;13.394;2024-03-25T18:55:16;100061.11;;;4.63;95.49
51617;BME280;37697;52.588;13.394;2024-03-25T19:00:41;100062.20;;;4.51;95.33
51617;BME280;37697;52.588;13.394;2024-03-25T19:06:07;100062.52;;;4.41;95.40
51617;BME280;37697;52.588;13.394;2024-03-25T19:11:33;100066.10;;;4.36;96.57
51617;BME280;37697;52.588;13.394;2024-03-25T19:16:42;100065.36;;;4.29;96.21
51617;BME280;37697;52.588;13.394;2024-03-25T19:22:08;100055.13;;;4.22;96.15
51617;BME280;37697;52.588;13.394;2024-03-25T19:27:34;100050.41;;;4.10;96.17
51617;BME280;37697;52.588;13.394;2024-03-25T19:33:00;100052.80;;;3.96;96.36
51617;BME280;37697;52.588;13.394;2024-03-25T19:38:26;100056.79;;;3.84;96.21
51617;BME280;37697;52.588;13.394;2024-03-25T19:43:52;100067.16;;;3.77;96.80
51617;BME280;37697;52.588;13.394;2024-03-25T19:49:18;100066.08;;;3.71;97.07
51617;BME280;37697;52.588;13.394;2024-03-25T19:54:44;100059.77;;;3.66;97.15
51617;BME280;37697;52.588;13.394;2024-03-25T20:00:19;100057.48;;;3.62;97.37
51617;BME280;37697;52.588;13.394;2024-03-25T20:05:44;100060.91;;;3.56;97.54
51617;BME280;37697;52.588;13.394;2024-03-25T20:11:10;100060.64;;;3.48;97.72
51617;BME280;37697;52.588;13.394;2024-03-25T20:16:35;100067.77;;;3.40;97.58
51617;BME280;37697;52.588;13.394;2024-03-25T20:22:01;100069.52;;;3.29;97.44
51617;BME280;37697;52.588;13.394;2024-03-25T20:27:26;100070.91;;;3.19;97.43
51617;BME280;37697;52.588;13.394;2024-03-25T20:32:51;100074.11;;;3.11;97.64
51617;BME280;37697;52.588;13.394;2024-03-25T20:38:15;100068.16;;;3.02;97.44
51617;BME280;37697;52.588;13.394;2024-03-25T20:43:41;100067.82;;;2.93;97.67
51617;BME280;37697;52.588;13.394;2024-03-25T20:49:08;100070.20;;;2.86;97.82
51617;BME280;37697;52.588;13.394;2024-03-25T20:54:33;100067.66;;;2.78;97.70
51617;BME280;37697;52.588;13.394;2024-03-25T20:59:52;100062.11;;;2.72;97.89
51617;BME280;37697;52.588;13.394;2024-03-25T21:05:09;100065.62;;;2.64;97.78
51617;BME280;37697;52.588;13.394;2024-03-25T21:10:16;100062.38;;;2.57;97.78
51617;BME280;37697;52.588;13.394;2024-03-25T21:15:41;100062.64;;;2.50;97.97
51617;BME280;37697;52.588;13.394;2024-03-25T21:21:06;100065.05;;;2.44;98.07
51617;BME280;37697;52.588;13.394;2024-03-25T21:26:32;100067.52;;;2.37;98.17
51617;BME280;37697;52.588;13.394;2024-03-25T21:31:50;100071.73;;;2.31;98.21
51617;BME280;37697;52.588;13.394;2024-03-25T21:37:15;100063.89;;;2.26;98.56
51617;BME280;37697;52.588;13.394;2024-03-25T21:42:41;100064.23;;;2.22;98.54
51617;BME280;37697;52.588;13.394;2024-03-25T21:48:07;100060.54;;;2.19;98.90
51617;BME280;37697;52.588;13.394;2024-03-25T21:53:33;100054.54;;;2.17;99.06
51617;BME280;37697;52.588;13.394;2024-03-25T21:58:58;100050.84;;;2.12;99.03
51617;BME280;37697;52.588;13.394;2024-03-25T22:04:24;100052.69;;;2.03;98.84
51617;BME280;37697;52.588;13.394;2024-03-25T22:09:49;100052.95;;;1.93;98.79
51617;BME280;37697;52.588;13.394;2024-03-25T22:15:15;100051.92;;;1.83;98.76
51617;BME280;37697;52.588;13.394;2024-03-25T22:20:40;100059.57;;;1.74;98.94
51617;BME280;37697;52.588;13.394;2024-03-25T22:26:05;100064.83;;;1.66;98.99
51617;BME280;37697;52.588;13.394;2024-03-25T22:31:21;100066.41;;;1.60;99.13
51617;BME280;37697;52.588;13.394;2024-03-25T22:36:47;100071.41;;;1.53;99.18
51617;BME280;37697;52.588;13.394;2024-03-25T22:42:12;100070.32;;;1.45;99.18
51617;BME280;37697;52.588;13.394;2024-03-25T22:47:37;100067.49;;;1.39;99.23
51617;BME280;37697;52.588;13.394;2024-03-25T22:53:03;100061.34;;;1.34;99.48
51617;BME280;37697;52.588;13.394;2024-03-25T22:58:29;100064.22;;;1.30;99.39
51617;BME280;37697;52.588;13.394;2024-03-25T23:03:54;100061.83;;;1.24;99.32
51617;BME280;37697;52.588;13.394;2024-03-25T23:09:20;100055.48;;;1.17;99.18
51617;BME280;37697;52.588;13.394;2024-03-25T23:14:45;100052.55;;;1.12;99.52
51617;BME280;37697;52.588;13.394;2024-03-25T23:20:12;100049.31;;;1.06;99.51
51617;BME280;37697;52.588;13.394;2024-03-25T23:25:30;100044.39;;;1.03;99.58
51617;BME280;37697;52.588;13.394;2024-03-25T23:30:55;100035.55;;;0.97;99.57
51617;BME280;37697;52.588;13.394;2024-03-25T23:36:20;100031.33;;;0.92;99.47
51617;BME280;37697;52.588;13.394;2024-03-25T23:41:46;100034.35;;;0.85;99.55
51617;BME280;37697;52.588;13.394;2024-03-25T23:47:11;100028.60;;;0.78;99.70
51617;BME280;37697;52.588;13.394;2024-03-25T23:52:37;100034.19;;;0.69;99.60
51617;BME280;37697;52.588;13.394;2024-03-25T23:58:02;100029.76;;;0.60;99.79
